sensor_id;sensor_type;location;lat;lon;timestamp;temperature;humidity
16479;DHT22;8350;52.316;10.530;2023-02-11T00:01:57;4.80;1.00
16479;DHT22;8350;52.316;10.530;2023-02-11T00:04:25;4.90;1.00
16479;DHT22;8350;52.316;10.530;2023-02-11T00:06:52;5.00;1.00
16479;DHT22;8350;52.316;10.530;2023-02-11T00:09:19;5.00;1.00
16479;DHT22;8350;52.316;10.530;2023-02-11T00:11:46;5.10;1.00
16479;DHT22;8350;52.316;10.530;2023-02-11T00:14:13;5.10;1.00
16479;DHT22;8350;52.316;10.530;2023-02-11T00:16:42;5.10;1.00
16479;DHT22;8350;52.316;10.530;2023-02-11T00:19:09;5.10;1.00
16479;DHT22;8350;52.316;10.530;2023-02-11T00:21:36;5.20;1.00
16479;DHT22;8350;52.316;10.530;2023-02-11T00:24:04;5.20;1.00
16479;DHT22;8350;52.316;10.530;2023-02-11T00:26:32;5.20;1.00
16479;DHT22;8350;52.316;10.530;2023-02-11T00:29:01;5.20;1.00
16479;DHT22;8350;52.316;10.530;2023-02-11T00:31:28;5.20;1.00
16479;DHT22;8350;52.316;10.530;2023-02-11T00:33:57;5.20;1.00
16479;DHT22;8350;52.316;10.530;2023-02-11T00:36:25;5.30;1.00
16479;DHT22;8350;52.316;10.530;2023-02-11T00:38:53;5.30;1.00
16479;DHT22;8350;52.316;10.530;2023-02-11T00:41:21;5.40;1.00
16479;DHT22;8350;52.316;10.530;2023-02-11T00:43:48;5.40;1.00
16479;DHT22;8350;52.316;10.530;2023-02-11T00:46:16;5.40;1.00
16479;DHT22;8350;52.316;10.530;2023-02-11T00:48:43;5.40;1.00
16479;DHT22;8350;52.316;10.530;2023-02-11T00:51:12;5.40;1.00
16479;DHT22;8350;52.316;10.530;2023-02-11T00:53:45;5.50;1.00
16479;DHT22;8350;52.316;10.530;2023-02-11T00:56:12;5.50;1.00
16479;DHT22;8350;52.316;10.530;2023-02-11T00:58:39;5.50;1.00
16479;DHT22;8350;52.316;10.530;2023-02-11T01:01:06;5.50;1.00
16479;DHT22;8350;52.316;10.530;2023-02-11T01:03:33;5.60;1.00
16479;DHT22;8350;52.316;10.530;2023-02-11T01:06:00;5.60;1.00
16479;DHT22;8350;52.316;10.530;2023-02-11T01:08:29;5.60;1.00
16479;DHT22;8350;52.316;10.530;2023-02-11T01:10:59;5.70;1.00
16479;DHT22;8350;52.316;10.530;2023-02-11T01:13:27;5.60;1.00
16479;DHT22;8350;52.316;10.530;2023-02-11T01:15:56;5.60;1.00
16479;DHT22;8350;52.316;10.530;2023-02-11T01:18:23;5.60;1.00
16479;DHT22;8350;52.316;10.530;2023-02-11T01:20:51;5.60;1.00
16479;DHT22;8350;52.316;10.530;2023-02-11T01:23:20;5.60;1.00
16479;DHT22;8350;52.316;10.530;2023-02-11T01:25:49;5.60;1.00
16479;DHT22;8350;52.316;10.530;2023-02-11T01:28:18;5.60;1.00
16479;DHT22;8350;52.316;10.530;2023-02-11T01:30:47;5.60;1.00
16479;DHT22;8350;52.316;10.530;2023-02-11T01:33:15;5.60;1.00
16479;DHT22;8350;52.316;10.530;2023-02-11T01:35:43;5.60;1.00
16479;DHT22;8350;52.316;10.530;2023-02-11T01:38:15;5.70;1.00
16479;DHT22;8350;52.316;10.530;2023-02-11T01:40:48;5.70;1.00
16479;DHT22;8350;52.316;10.530;2023-02-11T01:43:15;5.70;1.00
16479;DHT22;8350;52.316;10.530;2023-02-11T01:46:02;5.70;1.00
16479;DHT22;8350;52.316;10.530;2023-02-11T01:48:35;5.70;1.00
16479;DHT22;8350;52.316;10.530;2023-02-11T01:51:06;5.70;2.10
16479;DHT22;8350;52.316;10.530;2023-02-11T01:53:35;5.70;7.10
16479;DHT22;8350;52.316;10.530;2023-02-11T01:56:27;5.70;12.30
16479;DHT22;8350;52.316;10.530;2023-02-11T01:59:17;5.60;16.30
16479;DHT22;8350;52.316;10.530;2023-02-11T02:01:51;5.60;19.60
16479;DHT22;8350;52.316;10.530;2023-02-11T02:04:19;5.60;23.70
16479;DHT22;8350;52.316;10.530;2023-02-11T02:06:50;5.60;25.90
16479;DHT22;8350;52.316;10.530;2023-02-11T02:09:21;5.60;31.20
16479;DHT22;8350;52.316;10.530;2023-02-11T02:11:50;5.60;40.40
16479;DHT22;8350;52.316;10.530;2023-02-11T02:14:18;5.60;52.30
16479;DHT22;8350;52.316;10.530;2023-02-11T02:16:48;5.60;62.00
16479;DHT22;8350;52.316;10.530;2023-02-11T02:19:46;5.60;65.20
16479;DHT22;8350;52.316;10.530;2023-02-11T02:22:52;5.60;72.00
16479;DHT22;8350;52.316;10.530;2023-02-11T02:25:39;5.60;78.30
16479;DHT22;8350;52.316;10.530;2023-02-11T02:28:38;5.60;80.30
16479;DHT22;8350;52.316;10.530;2023-02-11T02:31:30;5.60;83.60
16479;DHT22;8350;52.316;10.530;2023-02-11T02:34:04;5.60;93.20
16479;DHT22;8350;52.316;10.530;2023-02-11T02:36:36;5.60;94.60
16479;DHT22;8350;52.316;10.530;2023-02-11T02:39:09;5.60;95.40
16479;DHT22;8350;52.316;10.530;2023-02-11T02:41:38;5.60;98.10
16479;DHT22;8350;52.316;10.530;2023-02-11T02:44:06;5.60;99.90
16479;DHT22;8350;52.316;10.530;2023-02-11T02:46:34;5.60;99.90
16479;DHT22;8350;52.316;10.530;2023-02-11T02:49:03;5.60;99.90
16479;DHT22;8350;52.316;10.530;2023-02-11T02:51:47;5.60;99.90
16479;DHT22;8350;52.316;10.530;2023-02-11T02:54:49;5.60;99.90
16479;DHT22;8350;52.316;10.530;2023-02-11T02:57:28;5.60;99.90
16479;DHT22;8350;52.316;10.530;2023-02-11T03:00:09;5.60;99.90
16479;DHT22;8350;52.316;10.530;2023-02-11T03:02:45;5.60;99.90
16479;DHT22;8350;52.316;10.530;2023-02-11T03:05:22;5.60;99.90
16479;DHT22;8350;52.316;10.530;2023-02-11T03:07:57;5.60;99.90
16479;DHT22;8350;52.316;10.530;2023-02-11T03:10:28;5.60;99.90
16479;DHT22;8350;52.316;10.530;2023-02-11T03:12:56;5.60;99.90
16479;DHT22;8350;52.316;10.530;2023-02-11T03:15:26;5.60;99.90
16479;DHT22;8350;52.316;10.530;2023-02-11T03:17:58;5.60;99.90
16479;DHT22;8350;52.316;10.530;2023-02-11T03:20:29;5.60;99.90
16479;DHT22;8350;52.316;10.530;2023-02-11T03:23:07;5.60;99.90
16479;DHT22;8350;52.316;10.530;2023-02-11T03:25:40;5.60;99.90
16479;DHT22;8350;52.316;10.530;2023-02-11T03:28:14;5.60;99.90
16479;DHT22;8350;52.316;10.530;2023-02-11T03:30:46;5.60;99.90
16479;DHT22;8350;52.316;10.530;2023-02-11T03:33:19;5.60;99.90
16479;DHT22;8350;52.316;10.530;2023-02-11T03:35:53;5.60;99.90
16479;DHT22;8350;52.316;10.530;2023-02-11T03:38:27;5.60;99.90
16479;DHT22;8350;52.316;10.530;2023-02-11T03:40:59;5.70;99.90
16479;DHT22;8350;52.316;10.530;2023-02-11T03:43:31;5.70;99.90
16479;DHT22;8350;52.316;10.530;2023-02-11T03:45:59;5.60;99.90
16479;DHT22;8350;52.316;10.530;2023-02-11T03:48:30;5.60;99.90
16479;DHT22;8350;52.316;10.530;2023-02-11T03:51:04;5.60;99.90
16479;DHT22;8350;52.316;10.530;2023-02-11T03:53:34;5.60;99.90
16479;DHT22;8350;52.316;10.530;2023-02-11T03:56:05;5.60;99.90
16479;DHT22;8350;52.316;10.530;2023-02-11T03:58:32;5.60;99.90
16479;DHT22;8350;52.316;10.530;2023-02-11T04:01:01;5.60;99.90
16479;DHT22;8350;52.316;10.530;2023-02-11T04:03:29;5.70;99.90
16479;DHT22;8350;52.316;10.530;2023-02-11T04:05:59;5.70;99.90
16479;DHT22;8350;52.316;10.530;2023-02-11T04:08:25;5.70;99.90
16479;DHT22;8350;52.316;10.530;2023-02-11T04:10:52;5.70;99.90
16479;DHT22;8350;52.316;10.530;2023-02-11T04:13:19;5.60;99.90
16479;DHT22;8350;52.316;10.530;2023-02-11T04:15:46;5.60;99.90
16479;DHT22;8350;52.316;10.530;2023-02-11T04:18:13;5.70;99.90
16479;DHT22;8350;52.316;10.530;2023-02-11T04:20:40;5.70;99.90
16479;DHT22;8350;52.316;10.530;2023-02-11T04:23:09;5.60;99.90
16479;DHT22;8350;52.316;10.530;2023-02-11T04:25:36;5.70;99.90
16479;DHT22;8350;52.316;10.530;2023-02-11T04:28:03;5.70;99.90
16479;DHT22;8350;52.316;10.530;2023-02-11T04:30:29;5.70;99.90
16479;DHT22;8350;52.316;10.530;2023-02-11T04:32:57;5.70;99.90
16479;DHT22;8350;52.316;10.530;2023-02-11T04:35:24;5.60;99.90
16479;DHT22;8350;52.316;10.530;2023-02-11T04:37:53;5.70;99.90
16479;DHT22;8350;52.316;10.530;2023-02-11T04:40:22;5.70;99.90
16479;DHT22;8350;52.316;10.530;2023-02-11T04:42:49;5.70;99.90
16479;DHT22;8350;52.316;10.530;2023-02-11T04:45:16;5.60;99.90
16479;DHT22;8350;52.316;10.530;2023-02-11T04:47:43;5.60;99.90
16479;DHT22;8350;52.316;10.530;2023-02-11T04:50:10;5.70;99.90
16479;DHT22;8350;52.316;10.530;2023-02-11T04:52:36;5.60;99.90
16479;DHT22;8350;52.316;10.530;2023-02-11T04:55:04;5.60;99.90
16479;DHT22;8350;52.316;10.530;2023-02-11T04:57:32;5.60;99.90
16479;DHT22;8350;52.316;10.530;2023-02-11T04:59:59;5.60;99.90
16479;DHT22;8350;52.316;10.530;2023-02-11T05:02:26;5.50;99.90
16479;DHT22;8350;52.316;10.530;2023-02-11T05:04:53;5.50;99.90
16479;DHT22;8350;52.316;10.530;2023-02-11T05:07:20;5.50;99.90
16479;DHT22;8350;52.316;10.530;2023-02-11T05:09:47;5.50;99.90
16479;DHT22;8350;52.316;10.530;2023-02-11T05:12:14;5.40;99.90
16479;DHT22;8350;52.316;10.530;2023-02-11T05:14:43;5.40;99.90
16479;DHT22;8350;52.316;10.530;2023-02-11T05:17:10;5.40;99.90
16479;DHT22;8350;52.316;10.530;2023-02-11T05:19:37;5.50;99.90
16479;DHT22;8350;52.316;10.530;2023-02-11T05:22:04;5.40;99.90
16479;DHT22;8350;52.316;10.530;2023-02-11T05:24:31;5.40;99.90
16479;DHT22;8350;52.316;10.530;2023-02-11T05:26:58;5.40;99.90
16479;DHT22;8350;52.316;10.530;2023-02-11T05:29:25;5.50;99.90
16479;DHT22;8350;52.316;10.530;2023-02-11T05:31:53;5.40;99.90
16479;DHT22;8350;52.316;10.530;2023-02-11T05:34:20;5.40;99.90
16479;DHT22;8350;52.316;10.530;2023-02-11T05:36:47;5.50;99.90
16479;DHT22;8350;52.316;10.530;2023-02-11T05:39:14;5.50;99.90
16479;DHT22;8350;52.316;10.530;2023-02-11T05:41:41;5.40;99.90
16479;DHT22;8350;52.316;10.530;2023-02-11T05:44:08;5.50;99.90
16479;DHT22;8350;52.316;10.530;2023-02-11T05:46:38;5.50;99.90
16479;DHT22;8350;52.316;10.530;2023-02-11T05:49:06;5.50;99.90
16479;DHT22;8350;52.316;10.530;2023-02-11T05:51:33;5.50;99.90
16479;DHT22;8350;52.316;10.530;2023-02-11T05:54:00;5.40;99.90
16479;DHT22;8350;52.316;10.530;2023-02-11T05:56:28;5.50;99.90
16479;DHT22;8350;52.316;10.530;2023-02-11T05:58:55;5.40;99.90
16479;DHT22;8350;52.316;10.530;2023-02-11T06:01:24;5.50;99.90
16479;DHT22;8350;52.316;10.530;2023-02-11T06:03:53;5.50;99.90
16479;DHT22;8350;52.316;10.530;2023-02-11T06:06:24;5.50;99.90
16479;DHT22;8350;52.316;10.530;2023-02-11T06:08:51;5.50;99.90
16479;DHT22;8350;52.316;10.530;2023-02-11T06:11:19;5.50;99.90
16479;DHT22;8350;52.316;10.530;2023-02-11T06:16:54;5.50;99.90
16479;DHT22;8350;52.316;10.530;2023-02-11T06:19:21;5.50;99.90
16479;DHT22;8350;52.316;10.530;2023-02-11T06:21:49;5.50;99.90
16479;DHT22;8350;52.316;10.530;2023-02-11T06:24:17;5.50;99.90
16479;DHT22;8350;52.316;10.530;2023-02-11T06:26:43;5.60;99.90
16479;DHT22;8350;52.316;10.530;2023-02-11T06:29:10;5.50;99.90
16479;DHT22;8350;52.316;10.530;2023-02-11T06:31:38;5.60;99.90
16479;DHT22;8350;52.316;10.530;2023-02-11T06:34:05;5.60;99.90
16479;DHT22;8350;52.316;10.530;2023-02-11T06:36:32;5.50;99.90
16479;DHT22;8350;52.316;10.530;2023-02-11T06:39:01;5.60;99.90
16479;DHT22;8350;52.316;10.530;2023-02-11T06:41:27;5.60;99.90
16479;DHT22;8350;52.316;10.530;2023-02-11T06:43:54;5.60;99.90
16479;DHT22;8350;52.316;10.530;2023-02-11T06:46:21;5.60;99.90
16479;DHT22;8350;52.316;10.530;2023-02-11T06:48:48;5.60;99.90
16479;DHT22;8350;52.316;10.530;2023-02-11T06:51:15;5.60;99.90
16479;DHT22;8350;52.316;10.530;2023-02-11T06:53:44;5.60;99.90
16479;DHT22;8350;52.316;10.530;2023-02-11T06:56:14;5.70;99.90
16479;DHT22;8350;52.316;10.530;2023-02-11T06:58:42;5.70;99.90
16479;DHT22;8350;52.316;10.530;2023-02-11T07:01:11;5.70;99.90
16479;DHT22;8350;52.316;10.530;2023-02-11T07:03:40;5.70;99.90
16479;DHT22;8350;52.316;10.530;2023-02-11T07:06:11;5.70;99.90
16479;DHT22;8350;52.316;10.530;2023-02-11T07:08:39;5.80;99.90
16479;DHT22;8350;52.316;10.530;2023-02-11T07:11:08;5.80;99.90
16479;DHT22;8350;52.316;10.530;2023-02-11T07:13:37;5.80;99.90
16479;DHT22;8350;52.316;10.530;2023-02-11T07:16:05;5.80;99.90
16479;DHT22;8350;52.316;10.530;2023-02-11T07:18:36;5.90;99.90
16479;DHT22;8350;52.316;10.530;2023-02-11T07:21:03;5.90;99.90
16479;DHT22;8350;52.316;10.530;2023-02-11T07:23:35;5.90;99.90
16479;DHT22;8350;52.316;10.530;2023-02-11T07:26:03;5.90;99.90
16479;DHT22;8350;52.316;10.530;2023-02-11T07:28:34;5.90;99.90
16479;DHT22;8350;52.316;10.530;2023-02-11T07:31:06;5.90;99.90
16479;DHT22;8350;52.316;10.530;2023-02-11T07:33:34;6.00;99.90
16479;DHT22;8350;52.316;10.530;2023-02-11T07:36:02;6.00;99.90
16479;DHT22;8350;52.316;10.530;2023-02-11T07:38:30;6.00;99.90
16479;DHT22;8350;52.316;10.530;2023-02-11T07:40:59;6.10;99.90
16479;DHT22;8350;52.316;10.530;2023-02-11T07:43:26;6.10;99.90
16479;DHT22;8350;52.316;10.530;2023-02-11T07:45:53;6.20;99.90
16479;DHT22;8350;52.316;10.530;2023-02-11T07:48:21;6.20;99.90
16479;DHT22;8350;52.316;10.530;2023-02-11T07:50:48;6.20;99.90
16479;DHT22;8350;52.316;10.530;2023-02-11T07:53:15;6.20;99.90
16479;DHT22;8350;52.316;10.530;2023-02-11T07:55:42;6.30;99.90
16479;DHT22;8350;52.316;10.530;2023-02-11T07:58:09;6.30;99.90
16479;DHT22;8350;52.316;10.530;2023-02-11T08:00:36;6.30;99.90
16479;DHT22;8350;52.316;10.530;2023-02-11T08:03:03;6.30;99.90
16479;DHT22;8350;52.316;10.530;2023-02-11T08:05:36;6.30;99.90
16479;DHT22;8350;52.316;10.530;2023-02-11T08:08:03;6.30;99.90
16479;DHT22;8350;52.316;10.530;2023-02-11T08:10:30;6.40;99.90
16479;DHT22;8350;52.316;10.530;2023-02-11T08:12:57;6.40;99.90
16479;DHT22;8350;52.316;10.530;2023-02-11T08:15:24;6.40;99.90
16479;DHT22;8350;52.316;10.530;2023-02-11T08:17:51;6.40;99.90
16479;DHT22;8350;52.316;10.530;2023-02-11T08:20:18;6.40;99.90
16479;DHT22;8350;52.316;10.530;2023-02-11T08:22:47;6.40;99.90
16479;DHT22;8350;52.316;10.530;2023-02-11T08:25:16;6.40;99.90
16479;DHT22;8350;52.316;10.530;2023-02-11T08:27:45;6.40;99.90
16479;DHT22;8350;52.316;10.530;2023-02-11T08:30:13;6.40;99.90
16479;DHT22;8350;52.316;10.530;2023-02-11T08:32:40;6.50;99.90
16479;DHT22;8350;52.316;10.530;2023-02-11T08:35:07;6.50;99.90
16479;DHT22;8350;52.316;10.530;2023-02-11T08:37:37;6.40;99.90
16479;DHT22;8350;52.316;10.530;2023-02-11T08:40:06;6.50;99.90
16479;DHT22;8350;52.316;10.530;2023-02-11T08:42:33;6.50;99.90
16479;DHT22;8350;52.316;10.530;2023-02-11T08:45:00;6.50;99.90
16479;DHT22;8350;52.316;10.530;2023-02-11T08:47:27;6.50;99.90
16479;DHT22;8350;52.316;10.530;2023-02-11T08:49:54;6.50;99.90
16479;DHT22;8350;52.316;10.530;2023-02-11T08:52:21;6.50;99.90
16479;DHT22;8350;52.316;10.530;2023-02-11T08:54:51;6.60;99.90
16479;DHT22;8350;52.316;10.530;2023-02-11T08:57:20;6.60;99.90
16479;DHT22;8350;52.316;10.530;2023-02-11T08:59:47;6.60;99.90
16479;DHT22;8350;52.316;10.530;2023-02-11T09:02:14;6.60;99.90
16479;DHT22;8350;52.316;10.530;2023-02-11T09:04:41;6.60;99.90
16479;DHT22;8350;52.316;10.530;2023-02-11T09:07:11;6.60;99.90
16479;DHT22;8350;52.316;10.530;2023-02-11T09:09:45;6.60;99.90
16479;DHT22;8350;52.316;10.530;2023-02-11T09:12:12;6.60;99.90
16479;DHT22;8350;52.316;10.530;2023-02-11T09:14:41;6.60;99.90
16479;DHT22;8350;52.316;10.530;2023-02-11T09:17:09;6.60;99.90
16479;DHT22;8350;52.316;10.530;2023-02-11T09:19:36;6.60;99.90
16479;DHT22;8350;52.316;10.530;2023-02-11T09:22:03;6.60;99.90
16479;DHT22;8350;52.316;10.530;2023-02-11T09:24:30;6.60;99.90
16479;DHT22;8350;52.316;10.530;2023-02-11T09:26:57;6.60;99.90
16479;DHT22;8350;52.316;10.530;2023-02-11T09:29:33;6.60;99.90
16479;DHT22;8350;52.316;10.530;2023-02-11T09:32:02;6.60;99.90
16479;DHT22;8350;52.316;10.530;2023-02-11T09:34:30;6.60;99.90
16479;DHT22;8350;52.316;10.530;2023-02-11T09:36:56;6.60;99.90
16479;DHT22;8350;52.316;10.530;2023-02-11T09:39:27;6.60;99.90
16479;DHT22;8350;52.316;10.530;2023-02-11T09:42:22;6.60;99.90
16479;DHT22;8350;52.316;10.530;2023-02-11T09:44:51;6.60;99.90
16479;DHT22;8350;52.316;10.530;2023-02-11T09:47:27;6.70;99.90
16479;DHT22;8350;52.316;10.530;2023-02-11T09:49:59;6.70;99.90
16479;DHT22;8350;52.316;10.530;2023-02-11T09:52:32;6.70;99.90
16479;DHT22;8350;52.316;10.530;2023-02-11T09:55:02;6.60;99.90
16479;DHT22;8350;52.316;10.530;2023-02-11T09:57:33;6.60;99.90
16479;DHT22;8350;52.316;10.530;2023-02-11T10:00:00;6.70;99.90
16479;DHT22;8350;52.316;10.530;2023-02-11T10:02:41;6.60;99.90
16479;DHT22;8350;52.316;10.530;2023-02-11T10:05:29;6.60;99.90
16479;DHT22;8350;52.316;10.530;2023-02-11T10:08:05;6.60;99.90
16479;DHT22;8350;52.316;10.530;2023-02-11T10:10:46;6.60;99.90
16479;DHT22;8350;52.316;10.530;2023-02-11T10:13:42;6.60;99.90
16479;DHT22;8350;52.316;10.530;2023-02-11T10:16:19;6.70;99.90
16479;DHT22;8350;52.316;10.530;2023-02-11T10:19:12;6.70;99.90
16479;DHT22;8350;52.316;10.530;2023-02-11T10:21:48;6.70;99.90
16479;DHT22;8350;52.316;10.530;2023-02-11T10:24:17;6.70;99.90
16479;DHT22;8350;52.316;10.530;2023-02-11T10:26:45;6.70;99.90
16479;DHT22;8350;52.316;10.530;2023-02-11T10:29:23;6.70;99.90
16479;DHT22;8350;52.316;10.530;2023-02-11T10:31:52;6.80;99.90
16479;DHT22;8350;52.316;10.530;2023-02-11T10:34:21;6.80;99.90
16479;DHT22;8350;52.316;10.530;2023-02-11T10:36:48;6.80;99.90
16479;DHT22;8350;52.316;10.530;2023-02-11T10:39:17;6.70;99.90
16479;DHT22;8350;52.316;10.530;2023-02-11T10:41:46;6.80;99.90
16479;DHT22;8350;52.316;10.530;2023-02-11T10:44:23;6.80;99.90
16479;DHT22;8350;52.316;10.530;2023-02-11T10:46:51;6.80;99.90
16479;DHT22;8350;52.316;10.530;2023-02-11T10:49:38;6.80;99.90
16479;DHT22;8350;52.316;10.530;2023-02-11T10:52:14;6.90;99.90
16479;DHT22;8350;52.316;10.530;2023-02-11T10:54:50;6.90;99.90
16479;DHT22;8350;52.316;10.530;2023-02-11T10:57:20;6.90;99.90
16479;DHT22;8350;52.316;10.530;2023-02-11T10:59:57;6.90;99.90
16479;DHT22;8350;52.316;10.530;2023-02-11T11:02:28;6.90;99.90
16479;DHT22;8350;52.316;10.530;2023-02-11T11:05:00;7.00;99.90
16479;DHT22;8350;52.316;10.530;2023-02-11T11:07:30;7.00;99.90
16479;DHT22;8350;52.316;10.530;2023-02-11T11:10:00;7.00;99.90
16479;DHT22;8350;52.316;10.530;2023-02-11T11:12:34;7.00;99.90
16479;DHT22;8350;52.316;10.530;2023-02-11T11:15:14;7.00;99.90
16479;DHT22;8350;52.316;10.530;2023-02-11T11:17:43;7.10;99.90
16479;DHT22;8350;52.316;10.530;2023-02-11T11:20:20;7.00;99.90
16479;DHT22;8350;52.316;10.530;2023-02-11T11:22:51;7.10;99.90
16479;DHT22;8350;52.316;10.530;2023-02-11T11:25:24;7.00;99.90
16479;DHT22;8350;52.316;10.530;2023-02-11T11:27:53;7.10;99.90
16479;DHT22;8350;52.316;10.530;2023-02-11T11:30:22;7.10;99.90
16479;DHT22;8350;52.316;10.530;2023-02-11T11:32:51;7.10;99.90
16479;DHT22;8350;52.316;10.530;2023-02-11T11:35:26;7.20;99.90
16479;DHT22;8350;52.316;10.530;2023-02-11T11:37:55;7.20;99.90
16479;DHT22;8350;52.316;10.530;2023-02-11T11:40:25;7.20;99.90
16479;DHT22;8350;52.316;10.530;2023-02-11T11:43:03;7.20;99.90
16479;DHT22;8350;52.316;10.530;2023-02-11T11:45:31;7.20;99.90
16479;DHT22;8350;52.316;10.530;2023-02-11T11:48:00;7.20;99.90
16479;DHT22;8350;52.316;10.530;2023-02-11T11:50:34;7.30;99.90
16479;DHT22;8350;52.316;10.530;2023-02-11T11:53:06;7.30;99.90
16479;DHT22;8350;52.316;10.530;2023-02-11T11:55:41;7.30;99.90
16479;DHT22;8350;52.316;10.530;2023-02-11T11:58:14;7.30;99.90
16479;DHT22;8350;52.316;10.530;2023-02-11T12:00:50;7.30;99.90
16479;DHT22;8350;52.316;10.530;2023-02-11T12:03:45;7.30;99.90
16479;DHT22;8350;52.316;10.530;2023-02-11T12:06:33;7.40;99.90
16479;DHT22;8350;52.316;10.530;2023-02-11T12:09:12;7.40;99.90
16479;DHT22;8350;52.316;10.530;2023-02-11T12:11:54;7.40;99.90
16479;DHT22;8350;52.316;10.530;2023-02-11T12:14:30;7.40;99.90
16479;DHT22;8350;52.316;10.530;2023-02-11T12:17:03;7.40;99.90
16479;DHT22;8350;52.316;10.530;2023-02-11T12:19:53;7.50;99.90
16479;DHT22;8350;52.316;10.530;2023-02-11T12:22:32;7.50;99.90
16479;DHT22;8350;52.316;10.530;2023-02-11T12:25:16;7.50;99.90
16479;DHT22;8350;52.316;10.530;2023-02-11T12:27:51;7.50;99.90
16479;DHT22;8350;52.316;10.530;2023-02-11T12:30:33;7.50;99.90
16479;DHT22;8350;52.316;10.530;2023-02-11T12:33:12;7.60;99.90
16479;DHT22;8350;52.316;10.530;2023-02-11T12:35:49;7.60;99.90
16479;DHT22;8350;52.316;10.530;2023-02-11T12:38:49;7.60;99.90
16479;DHT22;8350;52.316;10.530;2023-02-11T12:41:29;7.60;99.90
16479;DHT22;8350;52.316;10.530;2023-02-11T12:44:18;7.70;99.90
16479;DHT22;8350;52.316;10.530;2023-02-11T12:46:55;7.70;99.90
16479;DHT22;8350;52.316;10.530;2023-02-11T12:49:38;7.70;99.90
16479;DHT22;8350;52.316;10.530;2023-02-11T12:52:16;7.70;99.90
16479;DHT22;8350;52.316;10.530;2023-02-11T12:54:57;7.80;99.90
16479;DHT22;8350;52.316;10.530;2023-02-11T12:57:27;7.80;99.90
16479;DHT22;8350;52.316;10.530;2023-02-11T12:59:59;7.80;99.90
16479;DHT22;8350;52.316;10.530;2023-02-11T13:02:37;7.80;99.90
16479;DHT22;8350;52.316;10.530;2023-02-11T13:05:26;7.90;99.90
16479;DHT22;8350;52.316;10.530;2023-02-11T13:08:01;7.80;99.90
16479;DHT22;8350;52.316;10.530;2023-02-11T13:10:32;7.90;99.90
16479;DHT22;8350;52.316;10.530;2023-02-11T13:13:02;7.90;99.90
16479;DHT22;8350;52.316;10.530;2023-02-11T13:15:49;7.90;99.90
16479;DHT22;8350;52.316;10.530;2023-02-11T13:18:25;7.90;99.90
16479;DHT22;8350;52.316;10.530;2023-02-11T13:20:56;7.90;99.90
16479;DHT22;8350;52.316;10.530;2023-02-11T13:23:32;7.90;99.90
16479;DHT22;8350;52.316;10.530;2023-02-11T13:26:09;7.90;99.90
16479;DHT22;8350;52.316;10.530;2023-02-11T13:28:43;7.90;99.90
16479;DHT22;8350;52.316;10.530;2023-02-11T13:31:13;7.90;99.90
16479;DHT22;8350;52.316;10.530;2023-02-11T13:33:44;7.90;99.90
16479;DHT22;8350;52.316;10.530;2023-02-11T13:36:20;7.90;99.90
16479;DHT22;8350;52.316;10.530;2023-02-11T13:38:59;7.90;99.90
16479;DHT22;8350;52.316;10.530;2023-02-11T13:41:37;7.90;99.90
16479;DHT22;8350;52.316;10.530;2023-02-11T13:44:19;7.90;99.90
16479;DHT22;8350;52.316;10.530;2023-02-11T13:46:53;7.90;99.90
16479;DHT22;8350;52.316;10.530;2023-02-11T13:49:24;7.90;99.90
16479;DHT22;8350;52.316;10.530;2023-02-11T13:51:53;7.90;99.90
16479;DHT22;8350;52.316;10.530;2023-02-11T13:54:24;7.90;99.90
16479;DHT22;8350;52.316;10.530;2023-02-11T14:00:41;7.90;99.90
16479;DHT22;8350;52.316;10.530;2023-02-11T14:03:30;7.90;99.90
16479;DHT22;8350;52.316;10.530;2023-02-11T14:06:18;7.90;99.90
16479;DHT22;8350;52.316;10.530;2023-02-11T14:09:35;7.80;99.90
16479;DHT22;8350;52.316;10.530;2023-02-11T14:12:29;7.90;99.90
16479;DHT22;8350;52.316;10.530;2023-02-11T14:14:58;7.90;99.90
16479;DHT22;8350;52.316;10.530;2023-02-11T14:17:33;7.80;99.90
16479;DHT22;8350;52.316;10.530;2023-02-11T14:20:02;7.80;99.90
16479;DHT22;8350;52.316;10.530;2023-02-11T14:22:39;7.90;99.90
16479;DHT22;8350;52.316;10.530;2023-02-11T14:25:17;7.80;99.90
16479;DHT22;8350;52.316;10.530;2023-02-11T14:27:52;7.80;99.90
16479;DHT22;8350;52.316;10.530;2023-02-11T14:30:38;7.80;99.90
16479;DHT22;8350;52.316;10.530;2023-02-11T14:33:35;7.80;99.90
16479;DHT22;8350;52.316;10.530;2023-02-11T14:36:13;7.80;99.90
16479;DHT22;8350;52.316;10.530;2023-02-11T14:38:51;7.90;99.90
16479;DHT22;8350;52.316;10.530;2023-02-11T14:41:24;7.80;99.90
16479;DHT22;8350;52.316;10.530;2023-02-11T14:43:53;7.80;99.90
16479;DHT22;8350;52.316;10.530;2023-02-11T14:46:23;7.80;99.90
16479;DHT22;8350;52.316;10.530;2023-02-11T14:48:57;7.80;99.90
16479;DHT22;8350;52.316;10.530;2023-02-11T14:51:26;7.80;99.90
16479;DHT22;8350;52.316;10.530;2023-02-11T14:53:58;7.80;99.90
16479;DHT22;8350;52.316;10.530;2023-02-11T14:56:29;7.80;99.90
16479;DHT22;8350;52.316;10.530;2023-02-11T14:58:59;7.80;99.90
16479;DHT22;8350;52.316;10.530;2023-02-11T15:01:29;7.80;99.90
16479;DHT22;8350;52.316;10.530;2023-02-11T15:03:58;7.80;99.90
16479;DHT22;8350;52.316;10.530;2023-02-11T15:06:29;7.80;99.90
16479;DHT22;8350;52.316;10.530;2023-02-11T15:08:59;7.80;99.90
16479;DHT22;8350;52.316;10.530;2023-02-11T15:11:28;7.90;99.90
16479;DHT22;8350;52.316;10.530;2023-02-11T15:14:04;7.90;99.90
16479;DHT22;8350;52.316;10.530;2023-02-11T15:16:33;7.90;99.90
16479;DHT22;8350;52.316;10.530;2023-02-11T15:19:05;7.90;99.90
16479;DHT22;8350;52.316;10.530;2023-02-11T15:21:34;7.90;99.90
16479;DHT22;8350;52.316;10.530;2023-02-11T15:24:21;7.90;99.90
16479;DHT22;8350;52.316;10.530;2023-02-11T15:26:58;7.90;99.90
16479;DHT22;8350;52.316;10.530;2023-02-11T15:29:25;7.90;99.90
16479;DHT22;8350;52.316;10.530;2023-02-11T15:32:04;7.90;99.90
16479;DHT22;8350;52.316;10.530;2023-02-11T15:34:33;7.90;99.90
16479;DHT22;8350;52.316;10.530;2023-02-11T15:37:01;7.90;99.90
16479;DHT22;8350;52.316;10.530;2023-02-11T15:39:30;7.90;99.90
16479;DHT22;8350;52.316;10.530;2023-02-11T15:42:16;7.80;99.90
16479;DHT22;8350;52.316;10.530;2023-02-11T15:44:43;7.90;99.90
16479;DHT22;8350;52.316;10.530;2023-02-11T15:47:11;7.90;99.90
16479;DHT22;8350;52.316;10.530;2023-02-11T15:49:43;7.90;99.90
16479;DHT22;8350;52.316;10.530;2023-02-11T15:52:12;7.90;99.90
16479;DHT22;8350;52.316;10.530;2023-02-11T15:54:45;7.90;99.90
16479;DHT22;8350;52.316;10.530;2023-02-11T15:57:12;7.80;99.90
16479;DHT22;8350;52.316;10.530;2023-02-11T15:59:45;7.80;99.90
16479;DHT22;8350;52.316;10.530;2023-02-11T16:02:17;7.80;99.90
16479;DHT22;8350;52.316;10.530;2023-02-11T16:04:54;7.80;99.90
16479;DHT22;8350;52.316;10.530;2023-02-11T16:07:43;7.80;99.90
16479;DHT22;8350;52.316;10.530;2023-02-11T16:10:21;7.70;99.90
16479;DHT22;8350;52.316;10.530;2023-02-11T16:12:53;7.70;99.90
16479;DHT22;8350;52.316;10.530;2023-02-11T16:15:41;7.70;99.90
16479;DHT22;8350;52.316;10.530;2023-02-11T16:18:14;7.70;99.90
16479;DHT22;8350;52.316;10.530;2023-02-11T16:20:48;7.70;99.90
16479;DHT22;8350;52.316;10.530;2023-02-11T16:23:20;7.70;99.90
16479;DHT22;8350;52.316;10.530;2023-02-11T16:25:50;7.70;99.90